createdAt,value
2022-08-19T00:00:43.893Z,99361.50
2022-08-19T00:03:12.003Z,99366.28
2022-08-19T00:05:41.587Z,99369.19
2022-08-19T00:08:09.683Z,99365.00
2022-08-19T00:10:37.747Z,99362.50
2022-08-19T00:13:06.145Z,99357.56
2022-08-19T00:15:34.741Z,99356.69
2022-08-19T00:18:02.823Z,99362.91
2022-08-19T00:20:30.909Z,99358.09
2022-08-19T00:23:00.418Z,99358.31
2022-08-19T00:25:30.406Z,99362.84
2022-08-19T00:27:59.517Z,99368.63
2022-08-19T00:30:28.576Z,99356.94
2022-08-19T00:32:57.460Z,99363.56
2022-08-19T00:35:26.228Z,99354.03
2022-08-19T00:37:54.288Z,99359.84
2022-08-19T00:40:24.257Z,99364.06
2022-08-19T00:42:54.948Z,99364.44
2022-08-19T00:45:27.804Z,99358.44
2022-08-19T00:47:56.014Z,99356.56
2022-08-19T00:50:25.384Z,99348.25
2022-08-19T00:52:54.644Z,99341.41
2022-08-19T00:55:29.851Z,99342.84
2022-08-19T00:58:00.731Z,99354.56
2022-08-19T01:00:30.593Z,99352.47
2022-08-19T01:02:58.828Z,99347.22
2022-08-19T01:05:30.194Z,99357.00
2022-08-19T01:08:01.088Z,99349.06
2022-08-19T01:10:36.831Z,99348.38
2022-08-19T01:13:06.682Z,99346.34
2022-08-19T01:15:37.457Z,99348.59
2022-08-19T01:18:09.113Z,99346.50
2022-08-19T01:20:37.457Z,99347.13
2022-08-19T01:23:07.073Z,99340.88
2022-08-19T01:25:44.540Z,99339.16
2022-08-19T01:28:20.032Z,99343.03
2022-08-19T01:31:01.835Z,99339.63
2022-08-19T01:33:36.402Z,99328.06
2022-08-19T01:36:10.573Z,99328.13
2022-08-19T01:38:44.431Z,99323.50
2022-08-19T01:41:13.804Z,99334.34
2022-08-19T01:44:10.296Z,99331.81
2022-08-19T01:46:30.414Z,99332.09
2022-08-19T01:48:58.718Z,99318.16
2022-08-19T01:51:27.056Z,99319.13
2022-08-19T01:53:56.960Z,99309.19
2022-08-19T01:56:25.867Z,99311.06
2022-08-19T01:58:58.145Z,99295.97
2022-08-19T02:01:26.392Z,99294.72
2022-08-19T02:03:59.588Z,99301.63
2022-08-19T02:06:27.660Z,99294.72
2022-08-19T02:08:57.824Z,99289.19
2022-08-19T02:11:28.616Z,99284.91
2022-08-19T02:13:57.124Z,99289.69
2022-08-19T02:16:26.030Z,99288.00
2022-08-19T02:18:54.121Z,99287.59
2022-08-19T02:21:23.911Z,99294.47
2022-08-19T02:23:52.927Z,99277.19
2022-08-19T02:26:22.422Z,99285.44
2022-08-19T02:28:50.720Z,99279.81
2022-08-19T02:31:21.304Z,99271.00
2022-08-19T02:33:51.331Z,99270.94
2022-08-19T02:36:21.257Z,99282.13
2022-08-19T02:38:55.074Z,99285.81
2022-08-19T02:41:28.095Z,99289.56
2022-08-19T02:44:26.339Z,99302.16
2022-08-19T02:46:47.987Z,99305.25
2022-08-19T02:49:17.515Z,99303.78
2022-08-19T02:51:47.738Z,99297.94
2022-08-19T02:54:17.188Z,99304.38
2022-08-19T02:56:47.569Z,99320.06
2022-08-19T02:59:15.673Z,99316.47
2022-08-19T03:01:44.531Z,99317.25
2022-08-19T03:04:15.478Z,99315.75
2022-08-19T03:06:46.741Z,99303.75
2022-08-19T03:09:16.054Z,99308.69
2022-08-19T03:11:44.084Z,99314.91
2022-08-19T03:14:14.402Z,99320.50
2022-08-19T03:16:45.152Z,99325.19
2022-08-19T03:19:13.564Z,99331.16
2022-08-19T03:21:41.694Z,99335.94
2022-08-19T03:24:10.890Z,99328.47
2022-08-19T03:26:41.925Z,99324.88
2022-08-19T03:29:11.790Z,99329.84
2022-08-19T03:31:52.166Z,99333.97
2022-08-19T03:34:23.194Z,99331.47
2022-08-19T03:36:51.396Z,99335.13
2022-08-19T03:39:20.089Z,99335.81
2022-08-19T03:41:50.094Z,99337.25
2022-08-19T03:44:39.523Z,99337.66
2022-08-19T03:47:09.063Z,99342.75
2022-08-19T03:49:37.693Z,99352.47
2022-08-19T03:52:08.593Z,99344.75
2022-08-19T03:54:39.216Z,99366.06
2022-08-19T03:57:08.750Z,99363.09
2022-08-19T03:59:38.780Z,99355.22
2022-08-19T04:02:12.091Z,99341.28
2022-08-19T04:04:41.153Z,99351.75
2022-08-19T04:07:10.754Z,99347.19
2022-08-19T04:09:39.406Z,99361.94
2022-08-19T04:12:08.478Z,99369.28
2022-08-19T04:14:36.987Z,99363.06
2022-08-19T04:17:06.892Z,99382.66
2022-08-19T04:19:37.861Z,99381.22
2022-08-19T04:22:07.863Z,99380.09
2022-08-19T04:24:37.487Z,99351.06
2022-08-19T04:27:07.204Z,99368.03
2022-08-19T04:29:35.715Z,99373.66
2022-08-19T04:32:08.474Z,99380.44
2022-08-19T04:35:01.244Z,99373.28
2022-08-19T04:37:29.569Z,99386.97
2022-08-19T04:40:19.060Z,99385.47
2022-08-19T04:42:47.193Z,99381.28
2022-08-19T04:45:17.432Z,99368.22
2022-08-19T04:47:48.123Z,99371.22
2022-08-19T04:50:29.223Z,99365.00
2022-08-19T04:52:57.763Z,99365.25
2022-08-19T04:55:26.690Z,99382.53
2022-08-19T04:57:55.172Z,99374.03
2022-08-19T05:00:23.596Z,99380.66
2022-08-19T05:02:52.043Z,99390.44
2022-08-19T05:05:20.855Z,99378.75
2022-08-19T05:07:50.390Z,99378.66
2022-08-19T05:10:18.606Z,99382.66
2022-08-19T05:12:46.631Z,99385.38
2022-08-19T05:15:14.951Z,99386.88
2022-08-19T05:18:03.380Z,99383.72
2022-08-19T05:20:49.038Z,99377.75
2022-08-19T05:23:21.982Z,99372.81
2022-08-19T05:25:51.280Z,99377.03
2022-08-19T05:28:19.485Z,99379.75
2022-08-19T05:30:49.198Z,99377.72
2022-08-19T05:33:17.275Z,99378.38
2022-08-19T05:35:45.890Z,99375.78
2022-08-19T05:38:14.105Z,99388.63
2022-08-19T05:40:46.984Z,99384.44
2022-08-19T05:43:16.617Z,99379.81
2022-08-19T05:45:45.353Z,99382.66
2022-08-19T05:48:14.302Z,99386.75
2022-08-19T05:50:43.932Z,99386.31
2022-08-19T05:53:12.058Z,99375.31
2022-08-19T05:55:40.797Z,99377.56
2022-08-19T05:58:10.253Z,99370.94
2022-08-19T06:00:39.462Z,99374.63
2022-08-19T06:03:11.928Z,99380.50
2022-08-19T06:05:51.623Z,99377.88
2022-08-19T06:08:33.693Z,99379.97
2022-08-19T06:11:16.174Z,99377.28
2022-08-19T06:13:48.214Z,99371.03
2022-08-19T06:16:20.704Z,99377.66
2022-08-19T06:18:49.478Z,99375.06
2022-08-19T06:21:17.550Z,99392.63
2022-08-19T06:23:45.965Z,99370.63
2022-08-19T06:26:14.760Z,99376.28
2022-08-19T06:28:44.254Z,99360.47
2022-08-19T06:31:15.097Z,99358.63
2022-08-19T06:33:43.321Z,99351.16
2022-08-19T06:36:18.909Z,99360.41
2022-08-19T06:38:47.060Z,99363.88
2022-08-19T06:41:15.756Z,99368.97
2022-08-19T06:43:43.829Z,99357.78
2022-08-19T06:46:15.221Z,99354.69
2022-08-19T06:48:45.124Z,99352.22
2022-08-19T06:51:19.140Z,99349.75
2022-08-19T06:56:19.044Z,99359.69
2022-08-19T06:58:47.913Z,99371.63
2022-08-19T07:01:17.338Z,99383.84
2022-08-19T07:03:45.404Z,99388.25
2022-08-19T07:06:43.700Z,99398.31
2022-08-19T07:09:07.511Z,99399.84
2022-08-19T07:11:35.719Z,99390.72
2022-08-19T07:14:04.778Z,99396.28
2022-08-19T07:16:34.209Z,99400.88
2022-08-19T07:19:11.833Z,99402.06
2022-08-19T07:21:43.856Z,99401.56
2022-08-19T07:24:13.335Z,99397.72
2022-08-19T07:26:44.403Z,99395.56
2022-08-19T07:29:14.579Z,99388.09
2022-08-19T07:31:44.400Z,99406.81
2022-08-19T07:34:14.475Z,99393.72
2022-08-19T07:36:44.431Z,99394.16
2022-08-19T07:39:15.164Z,99392.53
2022-08-19T07:41:44.170Z,99387.53
2022-08-19T07:44:13.576Z,99388.97
2022-08-19T07:46:51.524Z,99380.69
2022-08-19T07:49:21.844Z,99382.91
2022-08-19T07:51:52.812Z,99389.28
2022-08-19T07:54:23.292Z,99382.13
2022-08-19T07:56:52.529Z,99389.50
2022-08-19T07:59:21.797Z,99386.22
2022-08-19T08:01:52.313Z,99378.50
2022-08-19T08:04:38.385Z,99385.34
2022-08-19T08:07:24.341Z,99389.13
2022-08-19T08:09:59.839Z,99384.50
2022-08-19T08:12:35.270Z,99389.03
2022-08-19T08:15:08.987Z,99392.84
2022-08-19T08:17:49.702Z,99394.13
2022-08-19T08:20:20.799Z,99389.13
2022-08-19T08:23:06.732Z,99381.69
2022-08-19T08:25:36.468Z,99388.63
2022-08-19T08:28:05.497Z,99388.31
2022-08-19T08:30:36.941Z,99385.59
2022-08-19T08:33:07.060Z,99389.88
2022-08-19T08:35:35.674Z,99387.38
2022-08-19T08:38:05.425Z,99395.56
2022-08-19T08:40:44.547Z,99377.22
2022-08-19T08:43:22.408Z,99378.81
2022-08-19T08:45:55.055Z,99368.41
2022-08-19T08:48:32.387Z,99361.25
2022-08-19T08:51:02.645Z,99350.53
2022-08-19T08:53:35.670Z,99361.13
2022-08-19T08:56:13.526Z,99365.47
2022-08-19T08:58:54.756Z,99369.25
2022-08-19T09:01:23.557Z,99384.13
2022-08-19T09:03:53.147Z,99363.03
2022-08-19T09:06:31.453Z,99367.13
2022-08-19T09:09:12.153Z,99357.41
2022-08-19T09:11:58.400Z,99373.72
2022-08-19T09:14:51.264Z,99359.22
2022-08-19T09:17:32.090Z,99353.22
2022-08-19T09:20:09.674Z,99356.41
2022-08-19T09:22:38.931Z,99344.94
2022-08-19T09:25:09.413Z,99346.75
2022-08-19T09:27:43.107Z,99355.41
2022-08-19T09:30:16.688Z,99341.75
2022-08-19T09:32:45.743Z,99325.91
2022-08-19T09:35:17.200Z,99329.59
2022-08-19T09:37:45.562Z,99334.88
2022-08-19T09:40:15.408Z,99334.00
2022-08-19T09:42:50.010Z,99332.28
2022-08-19T09:45:21.983Z,99332.03
2022-08-19T09:47:53.907Z,99327.75
2022-08-19T09:50:25.781Z,99319.72
2022-08-19T09:52:58.065Z,99309.84
2022-08-19T09:55:31.679Z,99308.69
2022-08-19T09:58:02.124Z,99301.41
2022-08-19T10:00:31.802Z,99310.09
2022-08-19T10:03:00.026Z,99304.19
2022-08-19T10:05:48.728Z,99301.13
2022-08-19T10:08:18.122Z,99310.47
2022-08-19T10:10:47.269Z,99325.97
2022-08-19T10:13:18.301Z,99319.41
2022-08-19T10:15:48.143Z,99303.22
2022-08-19T10:18:19.347Z,99297.97
2022-08-19T10:20:51.732Z,99288.22
2022-08-19T10:23:21.803Z,99299.75
2022-08-19T10:25:50.845Z,99292.22
2022-08-19T10:28:19.284Z,99285.66
2022-08-19T10:30:48.667Z,99293.34
2022-08-19T10:33:27.120Z,99291.75
2022-08-19T10:36:09.463Z,99293.00
2022-08-19T10:38:37.917Z,99298.22
2022-08-19T10:41:11.929Z,99297.94
2022-08-19T10:43:40.925Z,99295.97
2022-08-19T10:46:14.066Z,99293.13
2022-08-19T10:48:45.909Z,99300.97
2022-08-19T10:51:33.048Z,99296.50
2022-08-19T10:54:02.815Z,99299.66
2022-08-19T10:56:52.688Z,99296.06
2022-08-19T10:59:22.627Z,99297.50
2022-08-19T11:01:56.794Z,99299.66
2022-08-19T11:04:28.799Z,99288.22
2022-08-19T11:06:59.109Z,99283.91
2022-08-19T11:09:33.981Z,99285.06
2022-08-19T11:12:02.648Z,99277.66
2022-08-19T11:14:34.388Z,99277.38
2022-08-19T11:17:02.417Z,99296.34
2022-08-19T11:19:30.566Z,99290.88
2022-08-19T11:22:00.759Z,99287.56
2022-08-19T11:24:29.691Z,99282.06
2022-08-19T11:27:05.504Z,99279.88
2022-08-19T11:29:35.520Z,99290.84
2022-08-19T11:32:07.155Z,99280.41
2022-08-19T11:34:36.432Z,99287.28
2022-08-19T11:37:06.913Z,99283.19
2022-08-19T11:39:36.614Z,99275.44
2022-08-19T11:42:27.185Z,99269.94
2022-08-19T11:44:55.795Z,99274.84
2022-08-19T11:47:24.482Z,99271.84
2022-08-19T11:49:54.568Z,99272.13
2022-08-19T11:52:24.187Z,99263.28
2022-08-19T11:54:52.251Z,99259.06
2022-08-19T11:57:20.877Z,99262.91
2022-08-19T11:59:52.681Z,99256.13
2022-08-19T12:02:22.744Z,99250.41
2022-08-19T12:04:50.844Z,99253.13
2022-08-19T12:07:19.086Z,99264.13
2022-08-19T12:09:48.827Z,99253.97
2022-08-19T12:12:17.423Z,99261.41
2022-08-19T12:14:45.582Z,99261.38
2022-08-19T12:17:14.460Z,99268.00
2022-08-19T12:19:42.570Z,99262.47
2022-08-19T12:22:10.616Z,99263.28
2022-08-19T12:24:38.690Z,99262.47
2022-08-19T12:27:10.000Z,99266.25
2022-08-19T12:29:41.234Z,99258.03
2022-08-19T12:32:10.356Z,99261.59
2022-08-19T12:34:40.317Z,99260.53
2022-08-19T12:37:08.906Z,99249.72
2022-08-19T12:39:38.479Z,99242.75
2022-08-19T12:42:10.187Z,99237.56
2022-08-19T12:44:38.815Z,99234.59
2022-08-19T12:47:10.833Z,99227.22
2022-08-19T12:49:53.978Z,99223.88
2022-08-19T12:52:25.031Z,99224.31
2022-08-19T12:54:55.493Z,99222.75
2022-08-19T12:57:32.130Z,99216.25
2022-08-19T13:00:04.611Z,99215.03
2022-08-19T13:02:38.507Z,99220.78
2022-08-19T13:05:12.269Z,99230.25
2022-08-19T13:07:41.545Z,99215.63
2022-08-19T13:10:12.194Z,99218.50
2022-08-19T13:12:42.970Z,99209.91
2022-08-19T13:15:12.383Z,99210.88
2022-08-19T13:17:41.351Z,99219.47
2022-08-19T13:20:12.019Z,99209.50
2022-08-19T13:22:40.564Z,99213.97
2022-08-19T13:25:10.243Z,99215.81
2022-08-19T13:27:39.179Z,99209.84
2022-08-19T13:30:28.973Z,99210.19
2022-08-19T13:33:16.578Z,99211.09
2022-08-19T13:35:48.380Z,99213.03
2022-08-19T13:38:18.597Z,99215.31
2022-08-19T13:40:47.513Z,99209.28
2022-08-19T13:43:22.412Z,99208.19
2022-08-19T13:45:57.623Z,99203.53
2022-08-19T13:48:27.486Z,99193.59
2022-08-19T13:50:56.049Z,99198.28
2022-08-19T13:53:25.707Z,99212.56
2022-08-19T13:55:54.753Z,99239.16
2022-08-19T13:58:23.354Z,99225.81
2022-08-19T14:00:52.873Z,99224.53
2022-08-19T14:03:21.177Z,99216.19
2022-08-19T14:05:49.457Z,99227.75
2022-08-19T14:08:17.749Z,99223.88
2022-08-19T14:10:46.569Z,99221.22
2022-08-19T14:13:18.400Z,99212.31
2022-08-19T14:15:46.614Z,99217.41
2022-08-19T14:18:16.130Z,99214.00
2022-08-19T14:20:44.229Z,99201.28
2022-08-19T14:23:13.354Z,99199.72
2022-08-19T14:25:41.519Z,99200.59
2022-08-19T14:28:09.824Z,99193.88
2022-08-19T14:30:39.856Z,99192.72
2022-08-19T14:33:09.649Z,99181.56
2022-08-19T14:35:39.944Z,99187.22
2022-08-19T14:38:09.198Z,99202.63
2022-08-19T14:40:37.473Z,99175.78
2022-08-19T14:43:06.505Z,99183.63
2022-08-19T14:45:37.330Z,99198.03
2022-08-19T14:48:06.274Z,99199.84
2022-08-19T14:50:34.859Z,99201.00
2022-08-19T14:53:08.170Z,99197.97
2022-08-19T14:55:43.375Z,99227.31
2022-08-19T14:58:29.011Z,99225.88
2022-08-19T15:00:58.240Z,99229.31
2022-08-19T15:03:27.073Z,99231.69
2022-08-19T15:05:56.558Z,99245.88
2022-08-19T15:08:26.559Z,99247.41
2022-08-19T15:10:54.985Z,99258.78
2022-08-19T15:13:23.155Z,99271.78
2022-08-19T15:15:52.755Z,99273.66
2022-08-19T15:18:21.495Z,99286.44
2022-08-19T15:20:49.726Z,99284.03
2022-08-19T15:23:20.357Z,99280.72
2022-08-19T15:25:55.976Z,99289.94
2022-08-19T15:28:25.903Z,99298.41
2022-08-19T15:30:54.246Z,99291.06
2022-08-19T15:33:22.403Z,99304.63
2022-08-19T15:35:52.173Z,99279.19
2022-08-19T15:38:22.197Z,99288.38
2022-08-19T15:40:51.960Z,99282.59
2022-08-19T15:43:22.262Z,99254.59
2022-08-19T15:45:50.312Z,99236.16
2022-08-19T15:48:18.420Z,99234.50
2022-08-19T15:50:46.487Z,99232.22
2022-08-19T15:53:14.530Z,99246.28
2022-08-19T15:55:45.854Z,99235.66
2022-08-19T15:58:34.231Z,99228.31
2022-08-19T16:01:23.551Z,99230.91
2022-08-19T16:04:11.343Z,99225.88
2022-08-19T16:06:46.520Z,99232.16
2022-08-19T16:09:15.610Z,99228.03
2022-08-19T16:11:46.382Z,99227.28
2022-08-19T16:14:18.680Z,99220.31
2022-08-19T16:16:48.157Z,99215.72
2022-08-19T16:19:18.270Z,99219.03
2022-08-19T16:21:48.218Z,99226.44
2022-08-19T16:24:19.367Z,99239.06
2022-08-19T16:26:47.597Z,99253.34
2022-08-19T16:29:33.923Z,99247.06
2022-08-19T16:32:10.301Z,99249.81
2022-08-19T16:34:39.199Z,99272.47
2022-08-19T16:37:07.395Z,99281.97
2022-08-19T16:39:35.502Z,99295.19
2022-08-19T16:42:07.493Z,99311.56
2022-08-19T16:44:39.501Z,99319.44
2022-08-19T16:47:07.906Z,99338.50
2022-08-19T16:49:52.432Z,99341.97
2022-08-19T16:52:25.274Z,99348.72
